createdAt,value
2017-11-11T00:02:05.067Z,2.10
2017-11-11T00:04:32.652Z,2.10
2017-11-11T00:07:00.213Z,2.10
2017-11-11T00:09:27.889Z,2.10
2017-11-11T00:11:56.223Z,2.00
2017-11-11T00:14:23.816Z,2.00
2017-11-11T00:16:51.381Z,2.00
2017-11-11T00:19:19.977Z,2.10
2017-11-11T00:21:47.537Z,2.00
2017-11-11T00:24:15.194Z,2.00
2017-11-11T00:26:42.773Z,1.90
2017-11-11T00:29:11.102Z,1.90
2017-11-11T00:31:38.689Z,1.90
2017-11-11T00:34:06.260Z,1.90
2017-11-11T00:36:33.846Z,1.90
2017-11-11T00:39:02.177Z,1.90
2017-11-11T00:41:29.764Z,1.90
2017-11-11T00:43:57.349Z,1.90
2017-11-11T00:46:25.673Z,1.90
2017-11-11T00:48:53.461Z,1.90
2017-11-11T00:51:21.746Z,2.00
2017-11-11T00:53:49.320Z,2.00
2017-11-11T00:56:18.592Z,2.10
2017-11-11T00:58:46.149Z,2.10
2017-11-11T01:01:13.733Z,2.20
2017-11-11T01:03:41.300Z,2.20
2017-11-11T01:06:09.653Z,2.30
2017-11-11T01:08:37.214Z,2.30
2017-11-11T01:11:05.582Z,2.30
2017-11-11T01:13:33.144Z,2.30
2017-11-11T01:16:00.705Z,2.30
2017-11-11T01:18:28.289Z,2.30
2017-11-11T01:20:55.873Z,2.30
2017-11-11T01:23:24.197Z,2.20
2017-11-11T01:25:52.189Z,2.20
2017-11-11T01:28:21.454Z,2.20
2017-11-11T01:30:49.017Z,2.20
2017-11-11T01:33:16.609Z,2.20
2017-11-11T01:35:45.682Z,2.30
2017-11-11T01:38:13.273Z,2.30
2017-11-11T01:40:40.837Z,2.30
2017-11-11T01:43:09.186Z,2.30
2017-11-11T01:45:36.749Z,2.30
2017-11-11T01:48:04.337Z,2.30
2017-11-11T01:50:31.901Z,2.30
2017-11-11T01:52:59.485Z,2.20
2017-11-11T01:55:27.053Z,2.20
2017-11-11T01:57:54.641Z,2.20
2017-11-11T02:00:22.244Z,2.20
2017-11-11T02:02:49.841Z,2.10
2017-11-11T02:05:17.410Z,2.10
2017-11-11T02:07:45.025Z,2.10
2017-11-11T02:10:12.849Z,2.10
2017-11-11T02:12:40.613Z,2.10
2017-11-11T02:15:08.483Z,2.20
2017-11-11T02:17:36.351Z,2.30
2017-11-11T02:20:04.777Z,2.40
2017-11-11T02:22:33.143Z,2.40
2017-11-11T02:25:00.766Z,2.40
2017-11-11T02:27:28.340Z,2.40
2017-11-11T02:29:55.909Z,2.50
2017-11-11T02:32:23.497Z,2.50
2017-11-11T02:34:51.053Z,2.50
2017-11-11T02:37:19.141Z,2.50
2017-11-11T02:39:47.505Z,2.60
2017-11-11T02:42:15.094Z,2.50
2017-11-11T02:44:43.745Z,2.60
2017-11-11T02:47:12.097Z,2.60
2017-11-11T02:49:39.668Z,2.60
2017-11-11T02:52:07.253Z,2.60
2017-11-11T02:54:34.813Z,2.60
2017-11-11T02:57:02.405Z,2.60
2017-11-11T02:59:30.508Z,2.60
2017-11-11T03:01:58.092Z,2.70
2017-11-11T03:04:25.658Z,2.70
2017-11-11T03:06:53.329Z,2.80
2017-11-11T03:09:22.810Z,2.90
2017-11-11T03:11:50.403Z,2.90
2017-11-11T03:14:19.705Z,2.90
2017-11-11T03:16:47.297Z,2.90
2017-11-11T03:19:14.922Z,3.00
2017-11-11T03:21:42.489Z,3.00
2017-11-11T03:24:10.857Z,3.00
2017-11-11T03:26:38.423Z,3.00
2017-11-11T03:29:06.014Z,3.00
2017-11-11T03:31:33.573Z,3.00
2017-11-11T03:34:02.029Z,3.10
2017-11-11T03:36:30.357Z,3.10
2017-11-11T03:38:57.952Z,3.10
2017-11-11T03:41:25.538Z,3.10
2017-11-11T03:43:53.889Z,3.20
2017-11-11T03:46:21.817Z,3.10
2017-11-11T03:48:49.409Z,3.20
2017-11-11T03:51:16.972Z,3.20
2017-11-11T03:53:44.563Z,3.20
2017-11-11T03:56:12.919Z,3.00
2017-11-11T03:58:40.492Z,3.00
2017-11-11T04:01:08.076Z,3.00
2017-11-11T04:03:36.433Z,3.00
2017-11-11T04:06:04.025Z,2.90
2017-11-11T04:08:32.355Z,3.00
2017-11-11T04:10:59.946Z,3.00
2017-11-11T04:13:28.277Z,3.00
2017-11-11T04:15:55.861Z,3.00
2017-11-11T04:18:23.422Z,3.00
2017-11-11T04:20:51.097Z,3.10
2017-11-11T04:25:52.686Z,3.10
2017-11-11T04:28:21.314Z,3.10
2017-11-11T04:30:48.877Z,3.10
2017-11-11T04:33:16.760Z,3.20
2017-11-11T04:35:44.321Z,3.20
2017-11-11T04:38:11.908Z,3.20
2017-11-11T04:40:39.496Z,3.20
2017-11-11T04:43:07.121Z,3.20
2017-11-11T04:45:34.709Z,3.20
2017-11-11T04:48:03.037Z,3.10
2017-11-11T04:50:30.733Z,3.10
2017-11-11T04:52:58.302Z,3.10
2017-11-11T04:55:26.629Z,3.10
2017-11-11T04:57:54.231Z,3.10
2017-11-11T05:00:22.666Z,3.10
2017-11-11T05:02:50.253Z,3.00
2017-11-11T05:05:19.329Z,3.00
2017-11-11T05:07:46.957Z,3.00
2017-11-11T05:10:15.289Z,3.10
2017-11-11T05:12:43.068Z,3.10
2017-11-11T05:15:11.397Z,3.20
2017-11-11T05:17:38.957Z,3.10
2017-11-11T05:20:06.537Z,3.10
2017-11-11T05:22:34.102Z,3.10
2017-11-11T05:25:01.692Z,3.10
2017-11-11T05:27:29.253Z,3.10
2017-11-11T05:29:57.017Z,3.10
2017-11-11T05:32:24.577Z,3.10
2017-11-11T05:34:52.905Z,3.10
2017-11-11T05:37:21.412Z,3.10
2017-11-11T05:39:48.982Z,3.10
2017-11-11T05:42:16.570Z,3.10
2017-11-11T05:44:44.222Z,3.10
2017-11-11T05:47:11.805Z,3.10
2017-11-11T05:49:40.129Z,3.10
2017-11-11T05:52:07.716Z,3.10
2017-11-11T05:54:35.389Z,3.10
2017-11-11T05:57:02.974Z,3.10
2017-11-11T05:59:31.301Z,3.10
2017-11-11T06:01:58.890Z,3.10
2017-11-11T06:04:27.221Z,3.10
2017-11-11T06:06:54.807Z,3.10
2017-11-11T06:09:22.374Z,3.10
2017-11-11T06:11:49.986Z,3.10
2017-11-11T06:14:20.024Z,3.10
2017-11-11T06:16:47.589Z,3.10
2017-11-11T06:19:15.185Z,3.10
2017-11-11T06:21:43.533Z,3.10
2017-11-11T06:24:11.121Z,3.10
2017-11-11T06:26:38.685Z,3.10
2017-11-11T06:29:07.037Z,3.10
2017-11-11T06:31:34.598Z,3.10
2017-11-11T06:34:02.516Z,3.10
2017-11-11T06:36:30.841Z,3.20
2017-11-11T06:38:58.400Z,3.20
2017-11-11T06:41:25.981Z,3.20
2017-11-11T06:43:53.584Z,3.20
2017-11-11T06:46:21.644Z,3.20
2017-11-11T06:48:49.973Z,3.20
2017-11-11T06:51:17.574Z,3.20
2017-11-11T06:53:45.901Z,3.20
2017-11-11T06:56:13.894Z,3.20
2017-11-11T06:58:41.461Z,3.20
2017-11-11T07:01:09.025Z,3.20
2017-11-11T07:03:36.608Z,3.30
2017-11-11T07:06:04.169Z,3.30
2017-11-11T07:08:31.771Z,3.30
2017-11-11T07:10:59.333Z,3.30
2017-11-11T07:13:26.950Z,3.30
2017-11-11T07:15:54.510Z,3.30
2017-11-11T07:18:22.861Z,3.30
2017-11-11T07:20:50.426Z,3.30
2017-11-11T07:23:19.852Z,3.20
2017-11-11T07:25:48.926Z,3.20
2017-11-11T07:28:16.513Z,3.20
2017-11-11T07:30:44.078Z,3.20
2017-11-11T07:33:12.445Z,3.20
2017-11-11T07:35:40.007Z,3.20
2017-11-11T07:38:07.668Z,3.20
2017-11-11T07:40:35.237Z,3.20
2017-11-11T07:43:02.838Z,3.20
2017-11-11T07:45:30.401Z,3.20
2017-11-11T07:47:57.966Z,3.20
2017-11-11T07:50:25.562Z,3.20
2017-11-11T07:52:54.662Z,3.20
2017-11-11T07:55:22.232Z,3.20
2017-11-11T07:57:49.836Z,3.20
2017-11-11T08:00:18.321Z,3.20
2017-11-11T08:02:45.879Z,3.20
2017-11-11T08:05:14.233Z,3.30
2017-11-11T08:07:42.590Z,3.50
2017-11-11T08:10:10.973Z,3.80
2017-11-11T08:12:38.533Z,3.80
2017-11-11T08:15:06.133Z,5.30
2017-11-11T08:17:33.705Z,6.50
2017-11-11T08:20:01.322Z,6.00
2017-11-11T08:22:28.894Z,5.60
2017-11-11T08:24:57.246Z,5.40
2017-11-11T08:27:24.809Z,5.40
2017-11-11T08:29:52.405Z,4.90
2017-11-11T08:32:21.062Z,4.60
2017-11-11T08:34:48.625Z,4.50
2017-11-11T08:37:16.219Z,4.40
2017-11-11T08:39:43.785Z,4.20
2017-11-11T08:42:11.368Z,4.10
2017-11-11T08:44:38.945Z,4.00
2017-11-11T08:47:06.624Z,4.00
2017-11-11T08:49:34.209Z,3.90
2017-11-11T08:52:02.538Z,3.80
2017-11-11T08:54:30.124Z,3.80
2017-11-11T08:56:57.685Z,3.80
2017-11-11T08:59:25.265Z,3.70
2017-11-11T09:01:53.594Z,3.80
2017-11-11T09:04:21.185Z,3.70
2017-11-11T09:06:49.485Z,3.70
2017-11-11T09:09:17.945Z,3.50
2017-11-11T09:11:45.510Z,3.50
2017-11-11T09:14:13.882Z,3.50
2017-11-11T09:16:42.222Z,3.60
2017-11-11T09:19:09.790Z,3.60
2017-11-11T09:21:37.381Z,3.60
2017-11-11T09:24:04.941Z,3.50
2017-11-11T09:26:32.526Z,3.50
2017-11-11T09:29:00.850Z,3.50
2017-11-11T09:31:28.437Z,3.40
2017-11-11T09:33:55.997Z,3.50
2017-11-11T09:36:25.201Z,3.50
2017-11-11T09:38:52.769Z,3.60
2017-11-11T09:41:20.341Z,3.50
2017-11-11T09:43:48.813Z,3.40
2017-11-11T09:46:16.378Z,3.40
2017-11-11T09:48:44.137Z,3.50
2017-11-11T09:51:11.709Z,3.50
2017-11-11T09:53:40.043Z,3.40
2017-11-11T09:56:07.649Z,3.40
2017-11-11T09:58:35.986Z,3.50
2017-11-11T10:01:03.989Z,3.50
2017-11-11T10:03:31.555Z,3.60
2017-11-11T10:05:59.905Z,3.60
2017-11-11T10:08:27.493Z,3.60
2017-11-11T10:10:55.061Z,3.60
2017-11-11T10:13:24.333Z,3.70
2017-11-11T10:15:51.894Z,3.70
2017-11-11T10:18:19.481Z,3.70
2017-11-11T10:20:47.813Z,3.70
2017-11-11T10:23:15.397Z,3.70
2017-11-11T10:25:43.793Z,3.70
2017-11-11T10:28:12.166Z,3.70
2017-11-11T10:30:39.831Z,3.70
2017-11-11T10:33:08.173Z,3.80
2017-11-11T10:35:35.766Z,3.80
2017-11-11T10:38:03.335Z,3.90
2017-11-11T10:40:31.731Z,4.00
2017-11-11T10:43:00.061Z,4.00
2017-11-11T10:45:27.650Z,4.00
2017-11-11T10:47:55.245Z,4.00
2017-11-11T10:50:22.872Z,4.00
2017-11-11T10:52:50.444Z,4.00
2017-11-11T10:55:18.035Z,4.10
2017-11-11T10:57:45.605Z,4.10
2017-11-11T11:00:13.205Z,4.10
2017-11-11T11:02:40.786Z,4.10
2017-11-11T11:05:09.140Z,4.20
2017-11-11T11:07:36.709Z,4.20
2017-11-11T11:10:04.305Z,4.40
2017-11-11T11:12:32.642Z,4.60
2017-11-11T11:15:00.259Z,4.60
2017-11-11T11:17:27.849Z,4.60
2017-11-11T11:19:55.417Z,4.60
2017-11-11T11:22:23.010Z,4.60
2017-11-11T11:24:51.343Z,4.70
2017-11-11T11:27:18.929Z,4.70
2017-11-11T11:29:46.494Z,4.60
2017-11-11T11:32:14.118Z,4.60
2017-11-11T11:34:41.689Z,4.60
2017-11-11T11:37:09.258Z,4.60
2017-11-11T11:39:36.845Z,4.60
2017-11-11T11:42:04.409Z,4.70
2017-11-11T11:44:31.996Z,4.70
2017-11-11T11:46:59.626Z,4.80
2017-11-11T11:49:27.217Z,4.80
2017-11-11T11:51:55.544Z,4.90
2017-11-11T11:54:24.049Z,4.90
2017-11-11T11:56:52.439Z,4.90
2017-11-11T11:59:20.772Z,4.90
2017-11-11T12:01:48.369Z,4.80
2017-11-11T12:04:15.977Z,4.90
2017-11-11T12:06:43.569Z,4.90
2017-11-11T12:09:11.133Z,4.90
2017-11-11T12:11:38.721Z,4.80
2017-11-11T12:14:07.055Z,4.90
2017-11-11T12:16:34.860Z,4.80
2017-11-11T12:19:03.194Z,4.90
2017-11-11T12:21:32.016Z,4.90
2017-11-11T12:23:59.685Z,4.90
2017-11-11T12:26:28.033Z,5.00
2017-11-11T12:28:55.658Z,5.00
2017-11-11T12:31:24.141Z,5.00
2017-11-11T12:33:51.710Z,5.00
2017-11-11T12:36:19.328Z,5.00
2017-11-11T12:38:46.924Z,4.90
2017-11-11T12:41:14.510Z,4.90
2017-11-11T12:43:42.074Z,4.90
2017-11-11T12:46:09.662Z,4.90
2017-11-11T12:48:37.229Z,4.90
2017-11-11T12:51:04.904Z,4.90
2017-11-11T12:53:33.238Z,5.00
2017-11-11T12:56:00.805Z,5.00
2017-11-11T12:58:28.430Z,5.00
2017-11-11T13:00:55.991Z,5.00
2017-11-11T13:03:25.777Z,5.10
2017-11-11T13:05:53.337Z,5.10
2017-11-11T13:08:21.078Z,5.10
2017-11-11T13:10:48.685Z,5.10
2017-11-11T13:13:16.280Z,5.10
2017-11-11T13:15:43.881Z,5.00
2017-11-11T13:18:11.450Z,5.00
2017-11-11T13:20:39.820Z,5.00
2017-11-11T13:23:07.381Z,5.00
2017-11-11T13:25:35.373Z,5.00
2017-11-11T13:28:03.724Z,4.90
2017-11-11T13:30:31.290Z,4.90
2017-11-11T13:32:59.641Z,4.90
2017-11-11T13:35:27.249Z,4.90
2017-11-11T13:37:55.581Z,4.90
2017-11-11T13:40:24.059Z,4.90
2017-11-11T13:42:51.641Z,4.90
2017-11-11T13:45:19.200Z,4.90
2017-11-11T13:47:46.785Z,4.90
2017-11-11T13:50:15.117Z,4.90
2017-11-11T13:52:42.705Z,4.90
2017-11-11T13:55:10.278Z,4.90
2017-11-11T13:57:38.654Z,4.90
2017-11-11T14:00:06.215Z,4.90
2017-11-11T14:02:33.805Z,4.90
2017-11-11T14:05:02.134Z,4.90
2017-11-11T14:07:29.717Z,4.90
2017-11-11T14:09:57.286Z,4.90
2017-11-11T14:12:26.556Z,4.90
2017-11-11T14:14:54.117Z,4.90
2017-11-11T14:17:21.701Z,4.90
2017-11-11T14:19:50.042Z,4.90
2017-11-11T14:22:17.626Z,4.90
2017-11-11T14:24:45.201Z,4.80
2017-11-11T14:27:12.786Z,4.80
2017-11-11T14:29:41.117Z,4.80
2017-11-11T14:32:08.701Z,4.80
2017-11-11T14:34:37.042Z,4.80
2017-11-11T14:37:04.637Z,4.80
2017-11-11T14:39:33.737Z,4.80
2017-11-11T14:42:01.324Z,4.80
2017-11-11T14:44:28.880Z,4.80
2017-11-11T14:46:57.244Z,4.80
2017-11-11T14:49:26.594Z,4.80
2017-11-11T14:51:54.201Z,4.70
2017-11-11T14:54:21.767Z,4.80
2017-11-11T14:56:49.425Z,4.70
2017-11-11T14:59:16.985Z,4.80
2017-11-11T15:01:44.549Z,4.70
2017-11-11T15:04:12.905Z,4.70
2017-11-11T15:06:40.473Z,4.70
2017-11-11T15:09:08.057Z,4.70
2017-11-11T15:11:36.385Z,4.70
2017-11-11T15:14:03.966Z,4.70
2017-11-11T15:16:31.526Z,4.70
2017-11-11T15:18:59.113Z,4.70
2017-11-11T15:21:27.550Z,4.70
2017-11-11T15:23:55.436Z,4.70
2017-11-11T15:26:23.916Z,4.70
2017-11-11T15:28:51.933Z,4.60
2017-11-11T15:31:20.261Z,4.50
2017-11-11T15:33:47.853Z,4.50
2017-11-11T15:36:15.413Z,4.50
2017-11-11T15:38:42.992Z,4.40
2017-11-11T15:41:11.325Z,4.40
2017-11-11T15:43:39.013Z,4.40
2017-11-11T15:46:06.576Z,4.40
2017-11-11T15:48:34.945Z,4.40
2017-11-11T15:51:02.574Z,4.40
2017-11-11T15:53:30.157Z,4.40
2017-11-11T15:55:57.721Z,4.40
2017-11-11T15:58:26.743Z,4.30
2017-11-11T16:00:54.324Z,4.30
2017-11-11T16:03:21.901Z,4.20
2017-11-11T16:05:49.463Z,4.20
2017-11-11T16:08:17.081Z,4.10
2017-11-11T16:10:45.409Z,4.10
2017-11-11T16:13:12.997Z,4.10
2017-11-11T16:15:40.556Z,4.00
2017-11-11T16:18:08.224Z,3.80
2017-11-11T16:20:35.791Z,3.80
2017-11-11T16:23:03.373Z,3.70
2017-11-11T16:25:31.794Z,3.60
2017-11-11T16:27:59.378Z,3.60
2017-11-11T16:30:26.953Z,3.50
2017-11-11T16:32:54.542Z,3.50
2017-11-11T16:35:22.864Z,3.50
2017-11-11T16:37:50.478Z,3.50
2017-11-11T16:40:19.117Z,3.60
2017-11-11T16:42:46.682Z,3.60
2017-11-11T16:45:14.322Z,3.60
2017-11-11T16:47:41.900Z,3.50
2017-11-11T16:50:09.481Z,3.50
2017-11-11T16:52:37.040Z,3.50
2017-11-11T16:55:04.626Z,3.50
2017-11-11T16:57:32.957Z,3.60
2017-11-11T17:00:00.538Z,3.50
2017-11-11T17:02:28.113Z,3.50
2017-11-11T17:04:56.668Z,3.50
2017-11-11T17:07:25.377Z,3.50
2017-11-11T17:09:52.957Z,3.50
2017-11-11T17:12:21.285Z,3.60
2017-11-11T17:14:48.877Z,3.60
2017-11-11T17:17:16.437Z,3.60
2017-11-11T17:19:44.025Z,3.60
2017-11-11T17:22:12.352Z,3.60
2017-11-11T17:24:39.933Z,3.60
2017-11-11T17:27:07.494Z,3.50
2017-11-11T17:29:35.093Z,3.50
2017-11-11T17:32:02.659Z,3.50
2017-11-11T17:34:30.241Z,3.40
2017-11-11T17:36:57.801Z,3.40
2017-11-11T17:39:27.739Z,3.30
2017-11-11T17:41:55.329Z,3.30
2017-11-11T17:44:24.598Z,3.30
2017-11-11T17:46:52.163Z,3.30
2017-11-11T17:49:19.748Z,3.30
2017-11-11T17:51:47.313Z,3.30
2017-11-11T17:54:15.661Z,3.40
2017-11-11T17:56:43.221Z,3.40
2017-11-11T17:59:10.805Z,3.50
2017-11-11T18:01:38.364Z,3.50
2017-11-11T18:04:06.029Z,3.60
2017-11-11T18:06:33.596Z,3.60
2017-11-11T18:09:01.962Z,3.70
2017-11-11T18:11:29.520Z,3.70
2017-11-11T18:13:57.181Z,3.80
2017-11-11T18:16:25.138Z,3.70
2017-11-11T18:18:52.706Z,3.70
2017-11-11T18:21:20.288Z,3.60
2017-11-11T18:23:48.619Z,3.50
2017-11-11T18:26:16.201Z,3.50
2017-11-11T18:28:43.761Z,3.50
2017-11-11T18:31:11.345Z,3.50
2017-11-11T18:33:39.674Z,3.50
2017-11-11T18:36:07.261Z,3.50
2017-11-11T18:38:34.821Z,3.50
2017-11-11T18:41:02.496Z,3.50
2017-11-11T18:43:30.057Z,3.60
2017-11-11T18:45:57.874Z,3.60
2017-11-11T18:48:26.858Z,3.60
2017-11-11T18:50:54.477Z,3.70
2017-11-11T18:53:22.041Z,3.70
2017-11-11T18:55:49.620Z,3.70
2017-11-11T18:58:17.949Z,3.80
2017-11-11T19:00:45.537Z,3.80
2017-11-11T19:03:13.873Z,3.80
2017-11-11T19:05:41.456Z,3.80
2017-11-11T19:08:09.042Z,3.80
2017-11-11T19:10:36.609Z,3.70
2017-11-11T19:13:04.965Z,3.70
2017-11-11T19:15:32.533Z,3.70
2017-11-11T19:18:00.922Z,3.60
2017-11-11T19:20:28.501Z,3.60
2017-11-11T19:22:56.850Z,3.40
2017-11-11T19:25:25.626Z,3.40
2017-11-11T19:27:53.228Z,3.40
2017-11-11T19:30:21.561Z,3.30
2017-11-11T19:32:49.251Z,3.30
2017-11-11T19:35:16.821Z,3.30
2017-11-11T19:37:45.177Z,3.20
2017-11-11T19:40:12.748Z,3.20
2017-11-11T19:42:40.336Z,3.20
2017-11-11T19:45:08.674Z,3.10
2017-11-11T19:47:36.356Z,3.10
2017-11-11T19:50:04.021Z,3.00
2017-11-11T19:52:31.614Z,3.00
2017-11-11T19:54:59.241Z,2.90
2017-11-11T19:57:26.994Z,2.90
2017-11-11T19:59:54.562Z,2.90
2017-11-11T20:02:22.158Z,2.90
2017-11-11T20:04:50.485Z,2.90
2017-11-11T20:07:18.069Z,2.90
2017-11-11T20:09:45.632Z,2.90
2017-11-11T20:12:13.237Z,2.80
2017-11-11T20:14:40.806Z,2.70
2017-11-11T20:17:08.381Z,2.70
2017-11-11T20:19:35.965Z,2.60
2017-11-11T20:22:03.533Z,2.60
2017-11-11T20:24:31.131Z,2.50
2017-11-11T20:26:58.696Z,2.50
2017-11-11T20:29:27.793Z,2.50
2017-11-11T20:31:55.362Z,2.50
2017-11-11T20:34:22.948Z,2.40
2017-11-11T20:36:50.526Z,2.40
2017-11-11T20:39:18.104Z,2.40
2017-11-11T20:41:46.448Z,2.30
2017-11-11T20:44:14.036Z,2.20
2017-11-11T20:46:42.372Z,2.10
2017-11-11T20:49:09.962Z,2.10
2017-11-11T20:51:38.297Z,2.00
2017-11-11T20:54:05.884Z,2.00
2017-11-11T20:56:33.453Z,2.00
2017-11-11T20:59:01.037Z,2.00
2017-11-11T21:01:29.013Z,2.00
2017-11-11T21:03:57.361Z,1.90
2017-11-11T21:06:24.921Z,1.90
2017-11-11T21:08:52.511Z,1.90
2017-11-11T21:11:20.841Z,2.00
2017-11-11T21:13:48.441Z,1.90
2017-11-11T21:16:16.778Z,2.00
2017-11-11T21:18:44.373Z,2.00
2017-11-11T21:21:11.937Z,2.10
2017-11-11T21:23:39.530Z,2.10
2017-11-11T21:26:07.885Z,2.10
2017-11-11T21:28:35.477Z,2.10
2017-11-11T21:31:03.038Z,2.00
2017-11-11T21:33:30.605Z,2.10
2017-11-11T21:35:58.194Z,2.10
2017-11-11T21:38:26.210Z,2.10
2017-11-11T21:40:54.569Z,2.10
2017-11-11T21:43:22.906Z,2.10
2017-11-11T21:45:50.488Z,2.10
2017-11-11T21:48:18.057Z,2.10
2017-11-11T21:50:45.651Z,2.10
2017-11-11T21:53:13.986Z,2.00
2017-11-11T21:55:41.584Z,2.00
2017-11-11T21:58:09.160Z,2.00
2017-11-11T22:00:37.509Z,1.80
2017-11-11T22:03:05.836Z,1.80
2017-11-11T22:05:33.421Z,1.80
2017-11-11T22:08:00.982Z,1.70
2017-11-11T22:10:29.777Z,1.70
2017-11-11T22:12:57.347Z,1.70
2017-11-11T22:15:25.030Z,1.70
2017-11-11T22:17:52.689Z,1.60
2017-11-11T22:20:20.353Z,1.70
2017-11-11T22:22:47.912Z,1.70
2017-11-11T22:25:15.494Z,1.60
2017-11-11T22:27:43.837Z,1.60
2017-11-11T22:30:11.421Z,1.60
2017-11-11T22:32:38.985Z,1.60
2017-11-11T22:35:06.570Z,1.60
2017-11-11T22:37:34.133Z,1.60
2017-11-11T22:40:01.717Z,1.50
2017-11-11T22:42:29.285Z,1.50
2017-11-11T22:44:56.881Z,1.40
2017-11-11T22:47:26.877Z,1.40
2017-11-11T22:49:54.462Z,1.40
2017-11-11T22:52:22.057Z,1.40
2017-11-11T22:54:49.621Z,1.30
2017-11-11T22:57:17.213Z,1.30
2017-11-11T22:59:44.814Z,1.30
2017-11-11T23:02:13.180Z,1.30
2017-11-11T23:04:40.778Z,1.30
2017-11-11T23:07:08.350Z,1.30
2017-11-11T23:09:35.951Z,1.30
2017-11-11T23:12:03.518Z,1.40
2017-11-11T23:14:31.104Z,1.40
2017-11-11T23:16:59.437Z,1.40
2017-11-11T23:19:28.866Z,1.40
2017-11-11T23:21:56.434Z,1.50
2017-11-11T23:24:24.002Z,1.50
2017-11-11T23:26:52.357Z,1.50
2017-11-11T23:29:19.925Z,1.50
2017-11-11T23:31:47.512Z,1.60
2017-11-11T23:34:16.665Z,1.60
2017-11-11T23:36:44.257Z,1.60
2017-11-11T23:39:11.825Z,1.60
2017-11-11T23:41:40.189Z,1.50
2017-11-11T23:44:07.748Z,1.50
2017-11-11T23:46:35.341Z,1.60
2017-11-11T23:49:02.912Z,1.60
2017-11-11T23:51:30.516Z,1.60
2017-11-11T23:53:58.082Z,1.50
2017-11-11T23:56:27.093Z,1.50
2017-11-11T23:58:54.681Z,1.40
